sensor_id;sensor_type;location;lat;lon;timestamp;temperature;humidity
7576;DHT22;3829;50.798;4.358;2023-05-17T00:00:50;9.60;99.90
7576;DHT22;3829;50.798;4.358;2023-05-17T00:03:16;9.60;99.90
7576;DHT22;3829;50.798;4.358;2023-05-17T00:05:41;9.60;99.90
7576;DHT22;3829;50.798;4.358;2023-05-17T00:08:07;9.60;99.90
7576;DHT22;3829;50.798;4.358;2023-05-17T00:10:32;9.60;99.90
7576;DHT22;3829;50.798;4.358;2023-05-17T00:12:58;9.50;99.90
7576;DHT22;3829;50.798;4.358;2023-05-17T00:15:23;9.50;99.90
7576;DHT22;3829;50.798;4.358;2023-05-17T00:17:49;9.50;99.90
7576;DHT22;3829;50.798;4.358;2023-05-17T00:20:15;9.50;99.90
7576;DHT22;3829;50.798;4.358;2023-05-17T00:22:40;9.50;99.90
7576;DHT22;3829;50.798;4.358;2023-05-17T00:25:07;9.50;99.90
7576;DHT22;3829;50.798;4.358;2023-05-17T00:27:33;9.40;99.90
7576;DHT22;3829;50.798;4.358;2023-05-17T00:29:58;9.30;99.90
7576;DHT22;3829;50.798;4.358;2023-05-17T00:32:24;9.40;99.90
7576;DHT22;3829;50.798;4.358;2023-05-17T00:34:50;9.30;99.90
7576;DHT22;3829;50.798;4.358;2023-05-17T00:37:15;9.40;99.90
7576;DHT22;3829;50.798;4.358;2023-05-17T00:39:41;9.30;99.90
7576;DHT22;3829;50.798;4.358;2023-05-17T00:42:07;9.30;99.90
7576;DHT22;3829;50.798;4.358;2023-05-17T00:44:32;9.30;99.90
7576;DHT22;3829;50.798;4.358;2023-05-17T00:46:58;9.30;99.90
7576;DHT22;3829;50.798;4.358;2023-05-17T00:49:25;9.30;99.90
7576;DHT22;3829;50.798;4.358;2023-05-17T00:51:52;9.30;99.90
7576;DHT22;3829;50.798;4.358;2023-05-17T00:54:17;9.20;99.90
7576;DHT22;3829;50.798;4.358;2023-05-17T00:56:43;9.20;99.90
7576;DHT22;3829;50.798;4.358;2023-05-17T00:59:09;9.30;99.90
7576;DHT22;3829;50.798;4.358;2023-05-17T01:01:41;9.30;99.90
7576;DHT22;3829;50.798;4.358;2023-05-17T01:04:07;9.20;99.90
7576;DHT22;3829;50.798;4.358;2023-05-17T01:06:34;9.20;99.90
7576;DHT22;3829;50.798;4.358;2023-05-17T01:09:00;9.10;99.90
7576;DHT22;3829;50.798;4.358;2023-05-17T01:14:16;9.20;99.90
7576;DHT22;3829;50.798;4.358;2023-05-17T01:16:54;9.20;99.90
7576;DHT22;3829;50.798;4.358;2023-05-17T01:25:03;9.20;99.90
7576;DHT22;3829;50.798;4.358;2023-05-17T01:27:33;9.20;99.90
7576;DHT22;3829;50.798;4.358;2023-05-17T01:30:00;9.10;99.90
7576;DHT22;3829;50.798;4.358;2023-05-17T01:32:26;9.10;99.90
7576;DHT22;3829;50.798;4.358;2023-05-17T01:34:53;9.00;99.90
7576;DHT22;3829;50.798;4.358;2023-05-17T01:37:18;9.00;99.90
7576;DHT22;3829;50.798;4.358;2023-05-17T01:39:44;9.00;99.90
7576;DHT22;3829;50.798;4.358;2023-05-17T01:42:25;9.00;99.90
7576;DHT22;3829;50.798;4.358;2023-05-17T01:45:05;9.00;99.90
7576;DHT22;3829;50.798;4.358;2023-05-17T01:47:51;9.10;99.90
7576;DHT22;3829;50.798;4.358;2023-05-17T01:50:21;9.10;99.90
7576;DHT22;3829;50.798;4.358;2023-05-17T01:52:53;9.10;99.90
7576;DHT22;3829;50.798;4.358;2023-05-17T01:55:30;9.00;99.90
7576;DHT22;3829;50.798;4.358;2023-05-17T01:57:58;9.00;99.90
7576;DHT22;3829;50.798;4.358;2023-05-17T02:00:26;9.10;99.90
7576;DHT22;3829;50.798;4.358;2023-05-17T02:02:53;9.00;99.90
7576;DHT22;3829;50.798;4.358;2023-05-17T02:05:19;9.10;99.90
7576;DHT22;3829;50.798;4.358;2023-05-17T02:07:45;9.00;99.90
7576;DHT22;3829;50.798;4.358;2023-05-17T02:10:10;9.00;99.90
7576;DHT22;3829;50.798;4.358;2023-05-17T02:12:36;9.10;99.90
7576;DHT22;3829;50.798;4.358;2023-05-17T02:15:02;9.10;99.90
7576;DHT22;3829;50.798;4.358;2023-05-17T02:17:27;9.10;99.90
7576;DHT22;3829;50.798;4.358;2023-05-17T02:19:53;9.20;99.90
7576;DHT22;3829;50.798;4.358;2023-05-17T02:22:18;9.20;99.90
7576;DHT22;3829;50.798;4.358;2023-05-17T02:24:44;9.20;99.90
7576;DHT22;3829;50.798;4.358;2023-05-17T02:27:11;9.10;99.90
7576;DHT22;3829;50.798;4.358;2023-05-17T02:29:36;9.20;99.90
7576;DHT22;3829;50.798;4.358;2023-05-17T02:32:02;9.10;99.90
7576;DHT22;3829;50.798;4.358;2023-05-17T02:34:27;9.00;99.90
7576;DHT22;3829;50.798;4.358;2023-05-17T02:36:53;8.90;99.90
7576;DHT22;3829;50.798;4.358;2023-05-17T02:39:18;8.90;99.90
7576;DHT22;3829;50.798;4.358;2023-05-17T02:41:44;8.90;99.90
7576;DHT22;3829;50.798;4.358;2023-05-17T02:44:10;8.80;99.90
7576;DHT22;3829;50.798;4.358;2023-05-17T02:46:35;8.80;99.90
7576;DHT22;3829;50.798;4.358;2023-05-17T02:49:01;8.80;99.90
7576;DHT22;3829;50.798;4.358;2023-05-17T02:51:26;8.80;99.90
7576;DHT22;3829;50.798;4.358;2023-05-17T02:53:52;8.80;99.90
7576;DHT22;3829;50.798;4.358;2023-05-17T02:56:17;8.80;99.90
7576;DHT22;3829;50.798;4.358;2023-05-17T02:58:43;8.90;99.90
7576;DHT22;3829;50.798;4.358;2023-05-17T03:01:08;8.90;99.90
7576;DHT22;3829;50.798;4.358;2023-05-17T03:03:34;8.90;99.90
7576;DHT22;3829;50.798;4.358;2023-05-17T03:06:01;8.90;99.90
7576;DHT22;3829;50.798;4.358;2023-05-17T03:08:26;8.90;99.90
7576;DHT22;3829;50.798;4.358;2023-05-17T03:10:52;8.90;99.90
7576;DHT22;3829;50.798;4.358;2023-05-17T03:13:18;8.80;99.90
7576;DHT22;3829;50.798;4.358;2023-05-17T03:15:43;8.80;99.90
7576;DHT22;3829;50.798;4.358;2023-05-17T03:18:09;8.70;99.90
7576;DHT22;3829;50.798;4.358;2023-05-17T03:20:35;8.70;99.90
7576;DHT22;3829;50.798;4.358;2023-05-17T03:23:00;8.70;99.90
7576;DHT22;3829;50.798;4.358;2023-05-17T03:25:26;8.70;99.90
7576;DHT22;3829;50.798;4.358;2023-05-17T03:27:51;8.70;99.90
7576;DHT22;3829;50.798;4.358;2023-05-17T03:30:17;8.80;99.90
7576;DHT22;3829;50.798;4.358;2023-05-17T03:32:43;8.80;99.90
7576;DHT22;3829;50.798;4.358;2023-05-17T03:35:09;8.80;99.90
7576;DHT22;3829;50.798;4.358;2023-05-17T03:37:35;8.80;99.90
7576;DHT22;3829;50.798;4.358;2023-05-17T03:40:00;8.70;99.90
7576;DHT22;3829;50.798;4.358;2023-05-17T03:42:26;8.60;99.90
7576;DHT22;3829;50.798;4.358;2023-05-17T03:44:52;8.50;99.90
7576;DHT22;3829;50.798;4.358;2023-05-17T03:47:18;8.40;99.90
7576;DHT22;3829;50.798;4.358;2023-05-17T03:49:48;8.40;99.90
7576;DHT22;3829;50.798;4.358;2023-05-17T03:52:13;8.40;99.90
7576;DHT22;3829;50.798;4.358;2023-05-17T03:54:39;8.30;99.90
7576;DHT22;3829;50.798;4.358;2023-05-17T03:57:04;8.20;99.90
7576;DHT22;3829;50.798;4.358;2023-05-17T03:59:30;8.20;99.90
7576;DHT22;3829;50.798;4.358;2023-05-17T04:01:56;8.20;99.90
7576;DHT22;3829;50.798;4.358;2023-05-17T04:04:21;8.10;99.90
7576;DHT22;3829;50.798;4.358;2023-05-17T04:06:47;8.20;99.90
7576;DHT22;3829;50.798;4.358;2023-05-17T04:09:12;8.20;99.90
7576;DHT22;3829;50.798;4.358;2023-05-17T04:11:40;8.20;99.90
7576;DHT22;3829;50.798;4.358;2023-05-17T04:14:06;8.30;99.90
7576;DHT22;3829;50.798;4.358;2023-05-17T04:16:32;8.30;99.90
7576;DHT22;3829;50.798;4.358;2023-05-17T04:18:59;8.20;99.90
7576;DHT22;3829;50.798;4.358;2023-05-17T04:21:25;8.30;99.90
7576;DHT22;3829;50.798;4.358;2023-05-17T04:23:51;8.30;99.90
7576;DHT22;3829;50.798;4.358;2023-05-17T04:26:16;8.30;99.90
7576;DHT22;3829;50.798;4.358;2023-05-17T04:28:42;8.30;99.90
7576;DHT22;3829;50.798;4.358;2023-05-17T04:31:08;8.40;99.90
7576;DHT22;3829;50.798;4.358;2023-05-17T04:33:34;8.40;99.90
7576;DHT22;3829;50.798;4.358;2023-05-17T04:36:01;8.50;99.90
7576;DHT22;3829;50.798;4.358;2023-05-17T04:38:27;8.60;99.90
7576;DHT22;3829;50.798;4.358;2023-05-17T04:40:52;8.70;99.90
7576;DHT22;3829;50.798;4.358;2023-05-17T04:43:18;8.80;99.90
7576;DHT22;3829;50.798;4.358;2023-05-17T04:45:43;8.80;99.90
7576;DHT22;3829;50.798;4.358;2023-05-17T04:48:09;8.90;99.90
7576;DHT22;3829;50.798;4.358;2023-05-17T04:50:34;9.00;99.90
7576;DHT22;3829;50.798;4.358;2023-05-17T04:53:00;9.10;99.90
7576;DHT22;3829;50.798;4.358;2023-05-17T04:55:26;9.20;99.90
7576;DHT22;3829;50.798;4.358;2023-05-17T04:57:51;9.40;99.90
7576;DHT22;3829;50.798;4.358;2023-05-17T05:00:17;9.50;99.90
7576;DHT22;3829;50.798;4.358;2023-05-17T05:02:43;9.70;99.90
7576;DHT22;3829;50.798;4.358;2023-05-17T05:05:10;9.70;99.90
7576;DHT22;3829;50.798;4.358;2023-05-17T05:07:35;9.80;99.90
7576;DHT22;3829;50.798;4.358;2023-05-17T05:10:02;9.80;99.90
7576;DHT22;3829;50.798;4.358;2023-05-17T05:12:28;9.70;99.90
7576;DHT22;3829;50.798;4.358;2023-05-17T05:14:53;9.70;99.90
7576;DHT22;3829;50.798;4.358;2023-05-17T05:17:20;9.90;99.90
7576;DHT22;3829;50.798;4.358;2023-05-17T05:19:46;9.90;99.90
7576;DHT22;3829;50.798;4.358;2023-05-17T05:22:11;10.10;99.90
7576;DHT22;3829;50.798;4.358;2023-05-17T05:24:37;10.30;99.90
7576;DHT22;3829;50.798;4.358;2023-05-17T05:27:02;10.40;99.90
7576;DHT22;3829;50.798;4.358;2023-05-17T05:29:28;10.60;99.90
7576;DHT22;3829;50.798;4.358;2023-05-17T05:31:53;10.70;99.90
7576;DHT22;3829;50.798;4.358;2023-05-17T05:34:19;10.90;99.90
7576;DHT22;3829;50.798;4.358;2023-05-17T05:36:45;11.10;99.90
7576;DHT22;3829;50.798;4.358;2023-05-17T05:39:11;11.30;99.90
7576;DHT22;3829;50.798;4.358;2023-05-17T05:41:37;11.40;99.90
7576;DHT22;3829;50.798;4.358;2023-05-17T05:44:02;11.40;99.90
7576;DHT22;3829;50.798;4.358;2023-05-17T05:46:28;11.30;99.90
7576;DHT22;3829;50.798;4.358;2023-05-17T05:48:53;11.30;99.90
7576;DHT22;3829;50.798;4.358;2023-05-17T05:51:19;11.40;99.90
7576;DHT22;3829;50.798;4.358;2023-05-17T05:53:45;11.40;99.90
7576;DHT22;3829;50.798;4.358;2023-05-17T05:56:10;11.40;99.90
7576;DHT22;3829;50.798;4.358;2023-05-17T05:58:36;11.50;99.90
7576;DHT22;3829;50.798;4.358;2023-05-17T06:01:02;11.60;99.90
7576;DHT22;3829;50.798;4.358;2023-05-17T06:03:28;11.80;99.90
7576;DHT22;3829;50.798;4.358;2023-05-17T06:05:54;12.00;99.90
7576;DHT22;3829;50.798;4.358;2023-05-17T06:08:20;12.20;99.90
7576;DHT22;3829;50.798;4.358;2023-05-17T06:10:45;12.30;99.90
7576;DHT22;3829;50.798;4.358;2023-05-17T06:13:11;12.40;99.90
7576;DHT22;3829;50.798;4.358;2023-05-17T06:15:36;12.60;99.90
7576;DHT22;3829;50.798;4.358;2023-05-17T06:18:02;12.70;99.90
7576;DHT22;3829;50.798;4.358;2023-05-17T06:20:28;12.70;99.90
7576;DHT22;3829;50.798;4.358;2023-05-17T06:22:54;12.80;99.90
7576;DHT22;3829;50.798;4.358;2023-05-17T06:25:19;12.70;99.90
7576;DHT22;3829;50.798;4.358;2023-05-17T06:27:45;12.70;99.90
7576;DHT22;3829;50.798;4.358;2023-05-17T06:30:12;12.60;99.90
7576;DHT22;3829;50.798;4.358;2023-05-17T06:32:38;12.70;99.90
7576;DHT22;3829;50.798;4.358;2023-05-17T06:35:03;12.80;99.90
7576;DHT22;3829;50.798;4.358;2023-05-17T06:37:29;12.90;99.90
7576;DHT22;3829;50.798;4.358;2023-05-17T06:40:04;13.00;99.90
7576;DHT22;3829;50.798;4.358;2023-05-17T06:42:31;13.20;99.90
7576;DHT22;3829;50.798;4.358;2023-05-17T06:44:57;13.50;99.90
7576;DHT22;3829;50.798;4.358;2023-05-17T06:47:22;13.50;99.90
7576;DHT22;3829;50.798;4.358;2023-05-17T06:49:48;13.40;99.90
7576;DHT22;3829;50.798;4.358;2023-05-17T06:52:14;13.60;99.90
7576;DHT22;3829;50.798;4.358;2023-05-17T06:54:39;13.60;99.90
7576;DHT22;3829;50.798;4.358;2023-05-17T06:57:05;13.80;99.90
7576;DHT22;3829;50.798;4.358;2023-05-17T06:59:31;13.80;99.90
7576;DHT22;3829;50.798;4.358;2023-05-17T07:01:56;13.90;99.90
7576;DHT22;3829;50.798;4.358;2023-05-17T07:04:25;13.90;99.90
7576;DHT22;3829;50.798;4.358;2023-05-17T07:06:52;14.00;99.90
7576;DHT22;3829;50.798;4.358;2023-05-17T07:09:19;13.70;99.90
7576;DHT22;3829;50.798;4.358;2023-05-17T07:11:46;13.60;99.90
7576;DHT22;3829;50.798;4.358;2023-05-17T07:14:11;13.50;99.90
7576;DHT22;3829;50.798;4.358;2023-05-17T07:16:37;13.50;99.90
7576;DHT22;3829;50.798;4.358;2023-05-17T07:19:02;13.50;99.90
7576;DHT22;3829;50.798;4.358;2023-05-17T07:21:28;13.60;99.90
7576;DHT22;3829;50.798;4.358;2023-05-17T07:23:54;13.80;99.90
7576;DHT22;3829;50.798;4.358;2023-05-17T07:26:19;13.90;99.90
7576;DHT22;3829;50.798;4.358;2023-05-17T07:28:45;14.10;99.90
7576;DHT22;3829;50.798;4.358;2023-05-17T07:31:11;14.20;99.90
7576;DHT22;3829;50.798;4.358;2023-05-17T07:33:37;14.30;99.90
7576;DHT22;3829;50.798;4.358;2023-05-17T07:36:03;14.50;99.90
7576;DHT22;3829;50.798;4.358;2023-05-17T07:38:29;14.70;99.90
7576;DHT22;3829;50.798;4.358;2023-05-17T07:40:55;14.60;99.90
7576;DHT22;3829;50.798;4.358;2023-05-17T07:43:21;14.50;99.90
7576;DHT22;3829;50.798;4.358;2023-05-17T07:45:47;14.80;99.90
7576;DHT22;3829;50.798;4.358;2023-05-17T07:48:12;15.10;99.90
7576;DHT22;3829;50.798;4.358;2023-05-17T07:50:38;15.40;99.90
7576;DHT22;3829;50.798;4.358;2023-05-17T07:53:04;15.70;99.90
7576;DHT22;3829;50.798;4.358;2023-05-17T07:55:29;16.00;99.90
7576;DHT22;3829;50.798;4.358;2023-05-17T07:57:55;16.10;99.90
7576;DHT22;3829;50.798;4.358;2023-05-17T08:00:21;16.20;99.90
7576;DHT22;3829;50.798;4.358;2023-05-17T08:02:47;16.00;99.90
7576;DHT22;3829;50.798;4.358;2023-05-17T08:05:13;15.80;99.90
7576;DHT22;3829;50.798;4.358;2023-05-17T08:07:39;15.90;99.90
7576;DHT22;3829;50.798;4.358;2023-05-17T08:10:05;16.50;99.90
7576;DHT22;3829;50.798;4.358;2023-05-17T08:12:31;16.90;99.90
7576;DHT22;3829;50.798;4.358;2023-05-17T08:14:56;17.00;99.90
7576;DHT22;3829;50.798;4.358;2023-05-17T08:17:22;16.80;99.90
7576;DHT22;3829;50.798;4.358;2023-05-17T08:19:48;16.60;99.90
7576;DHT22;3829;50.798;4.358;2023-05-17T08:22:14;16.50;99.90
7576;DHT22;3829;50.798;4.358;2023-05-17T08:24:40;16.50;99.90
7576;DHT22;3829;50.798;4.358;2023-05-17T08:27:05;15.80;99.90
7576;DHT22;3829;50.798;4.358;2023-05-17T08:29:31;15.60;99.90
7576;DHT22;3829;50.798;4.358;2023-05-17T08:31:57;16.00;99.90
7576;DHT22;3829;50.798;4.358;2023-05-17T08:34:22;16.30;99.90
7576;DHT22;3829;50.798;4.358;2023-05-17T08:36:48;16.70;99.90
7576;DHT22;3829;50.798;4.358;2023-05-17T08:39:13;16.50;99.90
7576;DHT22;3829;50.798;4.358;2023-05-17T08:41:39;16.10;99.90
7576;DHT22;3829;50.798;4.358;2023-05-17T08:44:05;15.70;99.90
7576;DHT22;3829;50.798;4.358;2023-05-17T08:46:32;15.30;99.90
7576;DHT22;3829;50.798;4.358;2023-05-17T08:48:59;15.50;99.90
7576;DHT22;3829;50.798;4.358;2023-05-17T08:51:28;15.40;99.90
7576;DHT22;3829;50.798;4.358;2023-05-17T08:53:54;15.70;99.90
7576;DHT22;3829;50.798;4.358;2023-05-17T08:56:22;15.90;99.90
7576;DHT22;3829;50.798;4.358;2023-05-17T08:58:51;16.20;99.90
7576;DHT22;3829;50.798;4.358;2023-05-17T09:01:17;16.00;99.90
7576;DHT22;3829;50.798;4.358;2023-05-17T09:03:46;16.00;99.90
7576;DHT22;3829;50.798;4.358;2023-05-17T09:06:16;16.10;99.90
7576;DHT22;3829;50.798;4.358;2023-05-17T09:08:44;16.00;99.90
7576;DHT22;3829;50.798;4.358;2023-05-17T09:11:10;16.00;99.90
7576;DHT22;3829;50.798;4.358;2023-05-17T09:13:37;15.70;99.90
7576;DHT22;3829;50.798;4.358;2023-05-17T09:16:11;15.60;99.90
7576;DHT22;3829;50.798;4.358;2023-05-17T09:18:37;15.90;99.90
7576;DHT22;3829;50.798;4.358;2023-05-17T09:21:03;16.40;99.90
7576;DHT22;3829;50.798;4.358;2023-05-17T09:23:30;16.60;99.90
7576;DHT22;3829;50.798;4.358;2023-05-17T09:26:06;17.10;99.90
7576;DHT22;3829;50.798;4.358;2023-05-17T09:28:37;17.30;99.90
7576;DHT22;3829;50.798;4.358;2023-05-17T09:31:05;16.50;99.90
7576;DHT22;3829;50.798;4.358;2023-05-17T09:33:32;16.40;99.90
7576;DHT22;3829;50.798;4.358;2023-05-17T09:35:57;16.20;99.90
7576;DHT22;3829;50.798;4.358;2023-05-17T09:38:25;16.10;99.90
7576;DHT22;3829;50.798;4.358;2023-05-17T09:40:52;16.60;99.90
7576;DHT22;3829;50.798;4.358;2023-05-17T09:43:23;16.50;99.90
7576;DHT22;3829;50.798;4.358;2023-05-17T09:45:55;16.60;99.90
7576;DHT22;3829;50.798;4.358;2023-05-17T09:48:21;16.70;99.90
7576;DHT22;3829;50.798;4.358;2023-05-17T09:50:48;16.90;99.90
7576;DHT22;3829;50.798;4.358;2023-05-17T09:53:24;16.60;99.90
7576;DHT22;3829;50.798;4.358;2023-05-17T09:55:55;17.00;99.90
7576;DHT22;3829;50.798;4.358;2023-05-17T09:58:22;16.90;99.90
7576;DHT22;3829;50.798;4.358;2023-05-17T10:00:52;17.00;99.90
7576;DHT22;3829;50.798;4.358;2023-05-17T10:03:19;17.20;99.90
7576;DHT22;3829;50.798;4.358;2023-05-17T10:05:45;17.40;99.90
7576;DHT22;3829;50.798;4.358;2023-05-17T10:08:13;17.50;99.90
7576;DHT22;3829;50.798;4.358;2023-05-17T10:10:40;17.30;99.90
7576;DHT22;3829;50.798;4.358;2023-05-17T10:13:09;17.00;99.90
7576;DHT22;3829;50.798;4.358;2023-05-17T10:15:35;16.40;99.90
7576;DHT22;3829;50.798;4.358;2023-05-17T10:18:03;16.20;99.90
7576;DHT22;3829;50.798;4.358;2023-05-17T10:20:29;16.40;99.90
7576;DHT22;3829;50.798;4.358;2023-05-17T10:22:56;16.50;99.90
7576;DHT22;3829;50.798;4.358;2023-05-17T10:25:22;17.00;99.90
7576;DHT22;3829;50.798;4.358;2023-05-17T10:27:49;17.00;99.90
7576;DHT22;3829;50.798;4.358;2023-05-17T10:30:16;17.10;99.90
7576;DHT22;3829;50.798;4.358;2023-05-17T10:32:44;17.20;99.90
7576;DHT22;3829;50.798;4.358;2023-05-17T10:35:11;17.40;99.90
7576;DHT22;3829;50.798;4.358;2023-05-17T10:37:40;17.40;99.90
7576;DHT22;3829;50.798;4.358;2023-05-17T10:40:07;17.20;99.90
7576;DHT22;3829;50.798;4.358;2023-05-17T10:42:42;17.20;99.90
7576;DHT22;3829;50.798;4.358;2023-05-17T10:45:11;16.90;99.90
7576;DHT22;3829;50.798;4.358;2023-05-17T10:47:38;16.80;99.90
7576;DHT22;3829;50.798;4.358;2023-05-17T10:50:24;16.90;99.90
7576;DHT22;3829;50.798;4.358;2023-05-17T10:52:50;16.80;99.90
7576;DHT22;3829;50.798;4.358;2023-05-17T10:55:19;16.80;99.90
7576;DHT22;3829;50.798;4.358;2023-05-17T11:00:39;16.70;99.90
7576;DHT22;3829;50.798;4.358;2023-05-17T11:03:12;16.70;99.90
7576;DHT22;3829;50.798;4.358;2023-05-17T11:05:42;17.30;99.90
7576;DHT22;3829;50.798;4.358;2023-05-17T11:08:14;17.40;99.90
7576;DHT22;3829;50.798;4.358;2023-05-17T11:13:26;17.00;99.90
7576;DHT22;3829;50.798;4.358;2023-05-17T11:16:02;16.90;99.90
7576;DHT22;3829;50.798;4.358;2023-05-17T11:21:17;16.90;99.90
7576;DHT22;3829;50.798;4.358;2023-05-17T11:23:43;17.00;99.90
7576;DHT22;3829;50.798;4.358;2023-05-17T11:26:20;17.20;99.90
7576;DHT22;3829;50.798;4.358;2023-05-17T11:28:47;17.30;99.90
7576;DHT22;3829;50.798;4.358;2023-05-17T11:31:13;17.70;99.90
7576;DHT22;3829;50.798;4.358;2023-05-17T11:33:42;18.00;99.90
7576;DHT22;3829;50.798;4.358;2023-05-17T11:36:18;18.30;99.90
7576;DHT22;3829;50.798;4.358;2023-05-17T11:38:48;18.20;99.90
7576;DHT22;3829;50.798;4.358;2023-05-17T11:41:19;18.00;99.90
7576;DHT22;3829;50.798;4.358;2023-05-17T11:43:47;18.10;99.90
7576;DHT22;3829;50.798;4.358;2023-05-17T11:46:19;18.30;99.90
7576;DHT22;3829;50.798;4.358;2023-05-17T11:48:46;18.30;99.90
7576;DHT22;3829;50.798;4.358;2023-05-17T11:51:13;18.20;99.90
7576;DHT22;3829;50.798;4.358;2023-05-17T11:53:41;18.00;99.90
7576;DHT22;3829;50.798;4.358;2023-05-17T11:56:08;18.00;99.90
7576;DHT22;3829;50.798;4.358;2023-05-17T11:58:34;18.00;99.90
7576;DHT22;3829;50.798;4.358;2023-05-17T12:01:00;18.10;99.90
7576;DHT22;3829;50.798;4.358;2023-05-17T12:03:27;18.00;99.90
7576;DHT22;3829;50.798;4.358;2023-05-17T12:06:05;17.40;99.90
7576;DHT22;3829;50.798;4.358;2023-05-17T12:08:32;17.40;99.90
7576;DHT22;3829;50.798;4.358;2023-05-17T12:10:59;17.60;99.90
7576;DHT22;3829;50.798;4.358;2023-05-17T12:13:28;17.90;99.90
7576;DHT22;3829;50.798;4.358;2023-05-17T12:15:59;17.70;99.90
7576;DHT22;3829;50.798;4.358;2023-05-17T12:18:36;17.90;99.90
7576;DHT22;3829;50.798;4.358;2023-05-17T12:21:02;17.70;99.90
7576;DHT22;3829;50.798;4.358;2023-05-17T12:23:29;17.90;99.90
7576;DHT22;3829;50.798;4.358;2023-05-17T12:26:05;18.00;99.90
7576;DHT22;3829;50.798;4.358;2023-05-17T12:28:32;18.10;99.90
7576;DHT22;3829;50.798;4.358;2023-05-17T12:30:58;18.50;99.90
7576;DHT22;3829;50.798;4.358;2023-05-17T12:33:30;18.10;99.90
7576;DHT22;3829;50.798;4.358;2023-05-17T12:35:56;17.60;99.90
7576;DHT22;3829;50.798;4.358;2023-05-17T12:38:23;17.40;99.90
7576;DHT22;3829;50.798;4.358;2023-05-17T12:40:49;17.80;99.90
7576;DHT22;3829;50.798;4.358;2023-05-17T12:43:15;18.30;99.90
7576;DHT22;3829;50.798;4.358;2023-05-17T12:45:41;18.20;99.90
7576;DHT22;3829;50.798;4.358;2023-05-17T12:48:06;18.20;99.90
7576;DHT22;3829;50.798;4.358;2023-05-17T12:50:32;17.30;99.90
7576;DHT22;3829;50.798;4.358;2023-05-17T12:52:57;17.30;99.90
7576;DHT22;3829;50.798;4.358;2023-05-17T12:55:24;17.70;99.90
7576;DHT22;3829;50.798;4.358;2023-05-17T12:57:52;17.90;99.90
7576;DHT22;3829;50.798;4.358;2023-05-17T13:00:19;17.90;99.90
7576;DHT22;3829;50.798;4.358;2023-05-17T13:02:46;17.70;99.90
7576;DHT22;3829;50.798;4.358;2023-05-17T13:05:19;17.60;99.90
7576;DHT22;3829;50.798;4.358;2023-05-17T13:07:46;18.30;99.90
7576;DHT22;3829;50.798;4.358;2023-05-17T13:10:23;18.90;99.90
7576;DHT22;3829;50.798;4.358;2023-05-17T13:12:56;18.90;99.90
7576;DHT22;3829;50.798;4.358;2023-05-17T13:15:30;18.20;99.90
7576;DHT22;3829;50.798;4.358;2023-05-17T13:17:57;18.80;99.90
7576;DHT22;3829;50.798;4.358;2023-05-17T13:20:24;19.00;99.90
7576;DHT22;3829;50.798;4.358;2023-05-17T13:22:51;18.40;99.90
7576;DHT22;3829;50.798;4.358;2023-05-17T13:25:17;18.40;99.90
7576;DHT22;3829;50.798;4.358;2023-05-17T13:27:44;19.20;99.90
7576;DHT22;3829;50.798;4.358;2023-05-17T13:30:14;20.60;99.90
7576;DHT22;3829;50.798;4.358;2023-05-17T13:32:40;21.80;99.90
7576;DHT22;3829;50.798;4.358;2023-05-17T13:35:06;22.00;99.90
7576;DHT22;3829;50.798;4.358;2023-05-17T13:37:32;22.40;99.90
7576;DHT22;3829;50.798;4.358;2023-05-17T13:39:57;22.20;99.90
7576;DHT22;3829;50.798;4.358;2023-05-17T13:42:23;22.20;99.90
7576;DHT22;3829;50.798;4.358;2023-05-17T13:44:49;21.80;99.90
7576;DHT22;3829;50.798;4.358;2023-05-17T13:47:14;21.90;99.90
7576;DHT22;3829;50.798;4.358;2023-05-17T13:49:40;22.40;99.90
7576;DHT22;3829;50.798;4.358;2023-05-17T13:52:06;21.70;99.90
7576;DHT22;3829;50.798;4.358;2023-05-17T13:54:34;20.50;99.90
7576;DHT22;3829;50.798;4.358;2023-05-17T13:57:00;20.80;99.90
7576;DHT22;3829;50.798;4.358;2023-05-17T13:59:26;20.50;99.90
7576;DHT22;3829;50.798;4.358;2023-05-17T14:01:52;20.30;99.90
7576;DHT22;3829;50.798;4.358;2023-05-17T14:04:18;20.20;99.90
7576;DHT22;3829;50.798;4.358;2023-05-17T14:06:45;20.30;99.60
7576;DHT22;3829;50.798;4.358;2023-05-17T14:09:11;20.20;99.90
7576;DHT22;3829;50.798;4.358;2023-05-17T14:11:37;19.40;99.90
7576;DHT22;3829;50.798;4.358;2023-05-17T14:14:02;19.40;99.90
7576;DHT22;3829;50.798;4.358;2023-05-17T14:16:28;19.10;99.90
7576;DHT22;3829;50.798;4.358;2023-05-17T14:18:54;19.40;99.90
7576;DHT22;3829;50.798;4.358;2023-05-17T14:21:19;20.00;99.90
7576;DHT22;3829;50.798;4.358;2023-05-17T14:23:45;20.40;99.90
7576;DHT22;3829;50.798;4.358;2023-05-17T14:26:11;20.70;99.90
7576;DHT22;3829;50.798;4.358;2023-05-17T14:28:36;21.00;99.90
7576;DHT22;3829;50.798;4.358;2023-05-17T14:31:05;20.30;99.90
7576;DHT22;3829;50.798;4.358;2023-05-17T14:33:31;20.50;99.90
7576;DHT22;3829;50.798;4.358;2023-05-17T14:35:56;20.40;99.90
7576;DHT22;3829;50.798;4.358;2023-05-17T14:38:22;19.90;99.90
7576;DHT22;3829;50.798;4.358;2023-05-17T14:40:47;20.10;99.90
7576;DHT22;3829;50.798;4.358;2023-05-17T14:43:13;19.10;99.90
7576;DHT22;3829;50.798;4.358;2023-05-17T14:45:39;18.70;99.90
7576;DHT22;3829;50.798;4.358;2023-05-17T14:48:04;19.50;99.90
7576;DHT22;3829;50.798;4.358;2023-05-17T14:50:30;21.20;99.90
7576;DHT22;3829;50.798;4.358;2023-05-17T14:52:57;21.70;99.90
7576;DHT22;3829;50.798;4.358;2023-05-17T14:55:22;21.40;99.90
7576;DHT22;3829;50.798;4.358;2023-05-17T14:57:51;21.50;99.90
7576;DHT22;3829;50.798;4.358;2023-05-17T15:00:18;21.10;99.90
7576;DHT22;3829;50.798;4.358;2023-05-17T15:02:44;20.30;99.90
7576;DHT22;3829;50.798;4.358;2023-05-17T15:05:10;19.30;99.90
7576;DHT22;3829;50.798;4.358;2023-05-17T15:07:36;20.10;99.90
7576;DHT22;3829;50.798;4.358;2023-05-17T15:10:03;21.20;99.90
7576;DHT22;3829;50.798;4.358;2023-05-17T15:12:29;20.60;99.90
7576;DHT22;3829;50.798;4.358;2023-05-17T15:14:56;20.80;99.90
7576;DHT22;3829;50.798;4.358;2023-05-17T15:17:22;21.30;99.90
7576;DHT22;3829;50.798;4.358;2023-05-17T15:19:48;21.70;99.70
7576;DHT22;3829;50.798;4.358;2023-05-17T15:22:13;21.00;99.90
7576;DHT22;3829;50.798;4.358;2023-05-17T15:24:39;21.50;99.90
7576;DHT22;3829;50.798;4.358;2023-05-17T15:27:05;20.80;99.90
7576;DHT22;3829;50.798;4.358;2023-05-17T15:29:31;20.70;99.90
7576;DHT22;3829;50.798;4.358;2023-05-17T15:31:57;21.30;99.90
7576;DHT22;3829;50.798;4.358;2023-05-17T15:34:24;21.30;99.90
7576;DHT22;3829;50.798;4.358;2023-05-17T15:36:55;20.60;99.90
7576;DHT22;3829;50.798;4.358;2023-05-17T15:39:22;20.40;99.90
7576;DHT22;3829;50.798;4.358;2023-05-17T15:41:48;19.50;99.90
7576;DHT22;3829;50.798;4.358;2023-05-17T15:44:14;19.50;99.90
7576;DHT22;3829;50.798;4.358;2023-05-17T15:46:39;20.30;99.90
7576;DHT22;3829;50.798;4.358;2023-05-17T15:49:05;20.80;99.90
7576;DHT22;3829;50.798;4.358;2023-05-17T15:51:30;19.80;99.90
7576;DHT22;3829;50.798;4.358;2023-05-17T15:53:56;19.00;99.90
7576;DHT22;3829;50.798;4.358;2023-05-17T15:56:22;18.10;99.90
7576;DHT22;3829;50.798;4.358;2023-05-17T15:58:48;17.20;99.90
7576;DHT22;3829;50.798;4.358;2023-05-17T16:01:14;16.90;99.90
7576;DHT22;3829;50.798;4.358;2023-05-17T16:03:40;16.80;99.90
7576;DHT22;3829;50.798;4.358;2023-05-17T16:06:06;16.90;99.90
7576;DHT22;3829;50.798;4.358;2023-05-17T16:08:32;17.10;99.90
7576;DHT22;3829;50.798;4.358;2023-05-17T16:10:58;17.60;99.90
7576;DHT22;3829;50.798;4.358;2023-05-17T16:13:23;17.80;99.90
7576;DHT22;3829;50.798;4.358;2023-05-17T16:15:49;17.40;99.90
7576;DHT22;3829;50.798;4.358;2023-05-17T16:18:15;17.50;99.90
7576;DHT22;3829;50.798;4.358;2023-05-17T16:20:42;17.10;99.90